This is the latest recevied weather packets stored in our database for station/object F4AMY-13. If no packets are shown the sender has not sent any weather packets the latest 10 day(s).
| Time | Temp. | Humidity | Pressure | Rain* | Wind** | Luminosity | Snow |
|---|---|---|---|---|---|---|---|
| 1777662445 | 16.11° C | 72% | 1022.5 hPa | 0 mm | 0 m/s | 0 W/m² | - |
| 1777662145 | 16.67° C | 72% | 1022.2 hPa | 0 mm | 0 m/s | 0 W/m² | - |
| 1777661845 | 16.67° C | 71% | 1022.3 hPa | 0 mm | 0 m/s | 0 W/m² | - |
| 1777661545 | 16.67° C | 70% | 1022.1 hPa | 0 mm | 0 m/s | 0 W/m² | - |
| 1777661245 | 17.22° C | 69% | 1022.1 hPa | 0 mm | 0 m/s | 0 W/m² | - |
| 1777660945 | 17.22° C | 67% | 1022.1 hPa | 0 mm | 0 m/s | 0 W/m² | - |
| 1777660645 | 17.78° C | 67% | 1022.1 hPa | 0 mm | 0 m/s | 0 W/m² | - |
| 1777660345 | 17.78° C | 66% | 1022 hPa | 0 mm | 0 m/s | 0 W/m² | - |
| 1777660045 | 18.33° C | 64% | 1021.8 hPa | 0 mm | 0 m/s | 0 W/m² | - |
| 1777659744 | 18.89° C | 63% | 1021.8 hPa | 0 mm | 0 m/s | 0 W/m² | - |
| 1777659445 | 18.89° C | 61% | 1021.6 hPa | 0 mm | 0 m/s | 0 W/m² | - |
| 1777659144 | 19.44° C | 60% | 1021.7 hPa | 0 mm | 0 m/s | 0 W/m² | - |
| 1777658844 | 20° C | 59% | 1021.9 hPa | 0 mm | 0 m/s | 0 W/m² | - |
| 1777658544 | 20° C | 58% | 1021.6 hPa | 0 mm | 0.89 m/s, ° | 2 W/m² | - |
| 1777658244 | 20.56° C | 56% | 1021.6 hPa | 0 mm | 1.79 m/s, ° | 4 W/m² | - |
| 1777657944 | 20.56° C | 54% | 1021.5 hPa | 0 mm | 2.24 m/s, ° | 5 W/m² | - |
| 1777657644 | 21.11° C | 53% | 1021.6 hPa | 0 mm | 2.68 m/s, ° | 6 W/m² | - |
| 1777657344 | 21.67° C | 51% | 1021.5 hPa | 0 mm | 7.6 m/s, ° | 17 W/m² | - |
| 1777657044 | 22.22° C | 50% | 1021.5 hPa | 0 mm | 8.05 m/s, ° | 18 W/m² | - |
| 1777656744 | 22.78° C | 50% | 1021.4 hPa | 0 mm | 8.49 m/s, ° | 19 W/m² | - |
| 1777656444 | 23.33° C | 47% | 1021.4 hPa | 0 mm | 9.39 m/s, ° | 21 W/m² | - |
| 1777656144 | 23.89° C | 46% | 1021.4 hPa | 0 mm | 10.28 m/s, ° | 23 W/m² | - |
| 1777655844 | 25° C | 44% | 1021.1 hPa | 0 mm | 12.07 m/s, ° | 27 W/m² | - |
| 1777655544 | 25.56° C | 42% | 1021.2 hPa | 0 mm | 12.96 m/s, ° | 29 W/m² | - |
| 1777655244 | 26.11° C | 41% | 1021.3 hPa | 0 mm | 14.31 m/s, ° | 32 W/m² | - |
* Rain latest hour (hover to see other rain measurements)
** Current wind speed in m/s (hover to see current wind gust speed)